createdAt,value
2023-01-19T00:01:41.918Z,97293.41
2023-01-19T00:04:09.255Z,97298.77
2023-01-19T00:06:36.634Z,97302.14
2023-01-19T00:09:03.965Z,97307.16
2023-01-19T00:11:31.453Z,97312.96
2023-01-19T00:13:59.001Z,97316.91
2023-01-19T00:16:26.423Z,97329.36
2023-01-19T00:18:54.255Z,97337.00
2023-01-19T00:21:22.048Z,97348.30
2023-01-19T00:23:52.097Z,97355.70
2023-01-19T00:26:21.932Z,97358.16
2023-01-19T00:28:49.988Z,97357.52
2023-01-19T00:31:20.103Z,97365.94
2023-01-19T00:33:49.125Z,97370.08
2023-01-19T00:36:16.863Z,97371.58
2023-01-19T00:38:44.415Z,97370.40
2023-01-19T00:41:11.780Z,97372.71
2023-01-19T00:43:39.276Z,97376.55
2023-01-19T00:46:06.881Z,97378.64
2023-01-19T00:48:34.591Z,97381.34
2023-01-19T00:51:02.103Z,97389.54
2023-01-19T00:53:32.038Z,97397.65
2023-01-19T00:55:59.739Z,97403.10
2023-01-19T00:58:27.327Z,97402.29
2023-01-19T01:00:57.417Z,97401.43
2023-01-19T01:03:27.716Z,97409.84
2023-01-19T01:05:55.273Z,97418.33
2023-01-19T01:08:22.486Z,97418.42
2023-01-19T01:10:50.615Z,97423.23
2023-01-19T01:13:21.098Z,97417.95
2023-01-19T01:15:50.950Z,97421.43
2023-01-19T01:18:18.255Z,97419.02
2023-01-19T01:20:45.943Z,97425.65
2023-01-19T01:23:13.847Z,97434.74
2023-01-19T01:25:42.206Z,97440.40
2023-01-19T01:28:09.823Z,97443.48
2023-01-19T01:30:41.055Z,97449.77
2023-01-19T01:33:08.564Z,97455.77
2023-01-19T01:35:36.656Z,97454.91
2023-01-19T01:38:04.329Z,97450.81
2023-01-19T01:40:31.617Z,97450.31
2023-01-19T01:42:59.516Z,97449.67
2023-01-19T01:45:32.958Z,97447.83
2023-01-19T01:48:08.380Z,97449.33
2023-01-19T01:51:01.457Z,97450.47
2023-01-19T01:53:32.668Z,97452.10
2023-01-19T01:56:04.622Z,97453.27
2023-01-19T01:58:33.697Z,97457.64
2023-01-19T02:01:20.324Z,97464.60
2023-01-19T02:03:47.989Z,97466.59
2023-01-19T02:06:15.446Z,97472.88
2023-01-19T02:09:18.173Z,97475.98
2023-01-19T02:12:05.344Z,97479.30
2023-01-19T02:14:37.040Z,97476.67
2023-01-19T02:17:06.127Z,97472.38
2023-01-19T02:19:42.233Z,97480.04
2023-01-19T02:22:16.370Z,97486.48
2023-01-19T02:24:44.373Z,97487.17
2023-01-19T02:27:12.283Z,97488.29
2023-01-19T02:29:39.853Z,97491.86
2023-01-19T02:32:08.665Z,97490.34
2023-01-19T02:34:36.451Z,97494.23
2023-01-19T02:37:08.488Z,97491.44
2023-01-19T02:39:54.170Z,97491.20
2023-01-19T02:42:29.909Z,97491.30
2023-01-19T02:44:57.838Z,97493.10
2023-01-19T02:47:25.748Z,97495.70
2023-01-19T02:50:00.485Z,97493.67
2023-01-19T02:52:28.867Z,97498.41
2023-01-19T02:55:18.045Z,97491.85
2023-01-19T02:58:11.388Z,97490.05
2023-01-19T03:00:48.308Z,97485.10
2023-01-19T03:03:30.359Z,97489.11
2023-01-19T03:06:24.308Z,97489.38
2023-01-19T03:09:05.731Z,97492.39
2023-01-19T03:11:40.017Z,97500.56
2023-01-19T03:14:14.456Z,97497.48
2023-01-19T03:16:50.903Z,97497.59
2023-01-19T03:19:50.191Z,97500.20
2023-01-19T03:22:27.013Z,97505.86
2023-01-19T03:24:59.933Z,97506.88
2023-01-19T03:27:32.359Z,97510.27
2023-01-19T03:30:18.294Z,97510.21
2023-01-19T03:32:56.343Z,97511.58
2023-01-19T03:35:29.195Z,97510.62
2023-01-19T03:38:00.691Z,97514.58
2023-01-19T03:40:31.931Z,97514.65
2023-01-19T03:43:01.454Z,97517.48
2023-01-19T03:45:33.151Z,97522.63
2023-01-19T03:48:00.605Z,97524.08
2023-01-19T03:50:29.754Z,97526.24
2023-01-19T03:53:10.224Z,97523.29
2023-01-19T03:55:40.269Z,97523.56
2023-01-19T03:58:08.143Z,97524.20
2023-01-19T04:00:36.547Z,97527.94
2023-01-19T04:03:05.278Z,97536.67
2023-01-19T04:05:33.801Z,97542.20
2023-01-19T04:08:01.194Z,97544.01
2023-01-19T04:10:28.570Z,97541.21
2023-01-19T04:13:01.050Z,97540.27
2023-01-19T04:15:30.210Z,97540.54
2023-01-19T04:17:59.259Z,97535.50
2023-01-19T04:20:27.771Z,97532.13
2023-01-19T04:22:59.181Z,97531.52
2023-01-19T04:25:28.146Z,97527.77
2023-01-19T04:27:57.542Z,97530.36
2023-01-19T04:30:26.201Z,97528.55
2023-01-19T04:32:55.855Z,97534.66
2023-01-19T04:35:23.349Z,97534.70
2023-01-19T04:37:51.071Z,97537.29
2023-01-19T04:40:18.684Z,97534.11
2023-01-19T04:42:46.557Z,97542.60
2023-01-19T04:45:14.278Z,97549.36
2023-01-19T04:47:42.182Z,97553.63
2023-01-19T04:50:10.625Z,97562.61
2023-01-19T04:52:38.464Z,97574.05
2023-01-19T04:55:07.042Z,97576.39
2023-01-19T04:57:34.439Z,97585.81
2023-01-19T05:00:02.883Z,97594.66
2023-01-19T05:02:30.346Z,97596.42
2023-01-19T05:04:57.897Z,97598.83
2023-01-19T05:07:25.626Z,97600.82
2023-01-19T05:09:53.571Z,97604.83
2023-01-19T05:12:21.593Z,97614.10
2023-01-19T05:14:48.991Z,97624.04
2023-01-19T05:17:16.492Z,97626.63
2023-01-19T05:19:43.880Z,97626.94
2023-01-19T05:22:11.391Z,97632.40
2023-01-19T05:24:38.901Z,97633.89
2023-01-19T05:27:06.522Z,97629.59
2023-01-19T05:29:34.156Z,97628.55
2023-01-19T05:32:01.763Z,97623.14
2023-01-19T05:34:28.975Z,97622.35
2023-01-19T05:36:56.741Z,97621.85
2023-01-19T05:39:25.628Z,97622.40
2023-01-19T05:41:52.938Z,97625.30
2023-01-19T05:44:20.828Z,97634.18
2023-01-19T05:46:48.540Z,97636.60
2023-01-19T05:49:16.072Z,97636.55
2023-01-19T05:51:45.093Z,97647.19
2023-01-19T05:54:15.026Z,97659.39
2023-01-19T05:56:45.319Z,97666.74
2023-01-19T05:59:12.675Z,97673.85
2023-01-19T06:01:41.329Z,97681.18
2023-01-19T06:04:08.571Z,97685.23
2023-01-19T06:06:36.063Z,97686.48
2023-01-19T06:09:03.709Z,97689.48
2023-01-19T06:11:30.969Z,97696.19
2023-01-19T06:13:58.569Z,97692.57
2023-01-19T06:16:26.619Z,97693.67
2023-01-19T06:18:53.864Z,97695.67
2023-01-19T06:21:21.628Z,97696.03
2023-01-19T06:23:49.138Z,97701.64
2023-01-19T06:26:16.433Z,97703.94
2023-01-19T06:28:43.898Z,97707.88
2023-01-19T06:31:11.642Z,97707.50
2023-01-19T06:33:39.450Z,97710.94
2023-01-19T06:36:07.313Z,97708.89
2023-01-19T06:38:35.240Z,97710.65
2023-01-19T06:41:02.927Z,97712.44
2023-01-19T06:43:31.527Z,97709.23
2023-01-19T06:46:00.087Z,97711.92
2023-01-19T06:48:27.691Z,97713.77
2023-01-19T06:50:56.208Z,97713.14
2023-01-19T06:53:27.574Z,97715.04
2023-01-19T06:56:01.078Z,97712.56
2023-01-19T06:58:29.453Z,97713.93
2023-01-19T07:01:09.732Z,97715.64
2023-01-19T07:03:38.708Z,97717.75
2023-01-19T07:06:06.857Z,97721.96
2023-01-19T07:08:35.737Z,97717.61
2023-01-19T07:11:25.650Z,97716.06
2023-01-19T07:13:58.832Z,97710.97
2023-01-19T07:16:27.640Z,97710.84
2023-01-19T07:18:55.145Z,97706.48
2023-01-19T07:21:23.155Z,97699.45
2023-01-19T07:23:52.082Z,97702.67
2023-01-19T07:26:21.500Z,97699.00
2023-01-19T07:28:50.339Z,97695.54
2023-01-19T07:31:18.266Z,97694.48
2023-01-19T07:33:46.043Z,97694.42
2023-01-19T07:36:13.781Z,97697.59
2023-01-19T07:38:41.155Z,97702.21
2023-01-19T07:41:10.299Z,97704.57
2023-01-19T07:43:38.689Z,97704.39
2023-01-19T07:46:07.809Z,97706.60
2023-01-19T07:48:35.490Z,97700.77
2023-01-19T07:51:05.996Z,97702.30
2023-01-19T07:53:34.656Z,97702.89
2023-01-19T07:56:02.050Z,97707.17
2023-01-19T07:58:29.574Z,97708.55
2023-01-19T08:00:57.294Z,97714.00
2023-01-19T08:03:24.624Z,97709.58
2023-01-19T08:05:53.212Z,97713.52
2023-01-19T08:08:21.469Z,97718.62
2023-01-19T08:10:52.179Z,97716.44
2023-01-19T08:13:19.903Z,97717.41
2023-01-19T08:15:50.909Z,97721.98
2023-01-19T08:18:18.918Z,97717.34
2023-01-19T08:20:46.779Z,97724.16
2023-01-19T08:23:14.708Z,97724.39
2023-01-19T08:25:46.100Z,97724.79
2023-01-19T08:28:15.779Z,97725.25
2023-01-19T08:30:44.628Z,97729.29
2023-01-19T08:33:13.356Z,97725.59
2023-01-19T08:35:43.710Z,97731.98
2023-01-19T08:38:11.841Z,97730.73
2023-01-19T08:40:41.583Z,97731.38
2023-01-19T08:43:11.566Z,97733.05
2023-01-19T08:45:41.978Z,97737.09
2023-01-19T08:48:10.119Z,97742.95
2023-01-19T08:50:43.526Z,97740.25
2023-01-19T08:53:15.785Z,97741.10
2023-01-19T08:55:44.147Z,97736.77
2023-01-19T08:58:11.602Z,97729.73
2023-01-19T09:00:39.850Z,97734.89
2023-01-19T09:03:10.974Z,97741.27
2023-01-19T09:05:38.721Z,97746.94
2023-01-19T09:08:09.091Z,97755.81
2023-01-19T09:10:38.111Z,97756.94
2023-01-19T09:13:13.494Z,97765.27
2023-01-19T09:15:42.200Z,97773.14
2023-01-19T09:18:13.190Z,97780.55
2023-01-19T09:20:42.997Z,97785.56
2023-01-19T09:23:12.096Z,97789.48
2023-01-19T09:25:40.970Z,97794.95
2023-01-19T09:28:11.259Z,97796.37
2023-01-19T09:30:40.746Z,97797.13
2023-01-19T09:33:10.874Z,97799.52
2023-01-19T09:35:39.823Z,97799.66
2023-01-19T09:38:08.999Z,97798.35
2023-01-19T09:40:42.309Z,97794.85
2023-01-19T09:43:15.599Z,97791.44
2023-01-19T09:45:53.428Z,97790.14
2023-01-19T09:48:27.493Z,97789.36
2023-01-19T09:50:59.138Z,97783.41
2023-01-19T09:53:52.389Z,97776.97
2023-01-19T09:56:21.862Z,97776.20
2023-01-19T09:58:51.025Z,97771.69
2023-01-19T10:01:49.882Z,97761.97
2023-01-19T10:04:35.123Z,97755.83
2023-01-19T10:07:19.144Z,97754.67
2023-01-19T10:10:12.344Z,97756.73
2023-01-19T10:13:08.464Z,97742.34
2023-01-19T10:15:46.501Z,97744.48
2023-01-19T10:18:42.898Z,97741.23
2023-01-19T10:21:19.467Z,97744.04
2023-01-19T10:24:17.877Z,97749.80
2023-01-19T10:26:53.435Z,97755.22
2023-01-19T10:29:26.070Z,97761.45
2023-01-19T10:32:03.800Z,97764.36
2023-01-19T10:34:31.472Z,97760.22
2023-01-19T10:37:13.489Z,97755.47
2023-01-19T10:39:41.749Z,97754.46
2023-01-19T10:42:14.911Z,97753.41
2023-01-19T10:44:42.441Z,97754.21
2023-01-19T10:47:18.965Z,97756.90
2023-01-19T10:49:48.297Z,97758.91
2023-01-19T10:52:35.511Z,97756.89
2023-01-19T10:55:05.453Z,97754.75
2023-01-19T10:57:37.948Z,97756.07
2023-01-19T11:00:27.314Z,97758.73
2023-01-19T11:02:55.004Z,97763.13
2023-01-19T11:05:31.550Z,97767.72
2023-01-19T11:07:58.993Z,97770.82
2023-01-19T11:10:30.085Z,97772.96
2023-01-19T11:13:13.045Z,97771.95
2023-01-19T11:15:42.203Z,97771.43
2023-01-19T11:18:28.743Z,97768.73
2023-01-19T11:21:01.842Z,97766.05
2023-01-19T11:23:33.398Z,97769.35
2023-01-19T11:26:04.785Z,97765.45
2023-01-19T11:28:39.865Z,97764.09
2023-01-19T11:31:10.744Z,97757.50
2023-01-19T11:33:52.356Z,97758.30
2023-01-19T11:36:23.112Z,97753.92
2023-01-19T11:38:53.234Z,97749.70
2023-01-19T11:41:30.654Z,97750.11
2023-01-19T11:44:09.730Z,97746.41
2023-01-19T11:46:41.426Z,97741.90
2023-01-19T11:49:22.072Z,97741.10
2023-01-19T11:51:58.325Z,97741.84
2023-01-19T11:57:33.673Z,97732.95
2023-01-19T12:00:11.288Z,97725.58
2023-01-19T12:02:52.862Z,97723.84
2023-01-19T12:05:22.609Z,97725.52
2023-01-19T12:07:51.932Z,97723.50
2023-01-19T12:10:36.175Z,97725.85
2023-01-19T12:13:04.475Z,97725.65
2023-01-19T12:15:38.789Z,97727.63
2023-01-19T12:18:12.646Z,97731.88
2023-01-19T12:20:44.424Z,97731.55
2023-01-19T12:23:44.631Z,97732.29
2023-01-19T12:26:28.585Z,97734.70
2023-01-19T12:29:17.654Z,97732.56
2023-01-19T12:31:45.384Z,97735.30
2023-01-19T12:34:25.713Z,97737.56
2023-01-19T12:37:00.226Z,97730.84
2023-01-19T12:39:28.322Z,97732.96
2023-01-19T12:42:12.306Z,97729.40
2023-01-19T12:44:41.370Z,97725.73
2023-01-19T12:47:14.725Z,97723.06
2023-01-19T12:49:45.706Z,97719.16
2023-01-19T12:52:24.005Z,97723.98
2023-01-19T12:55:01.810Z,97724.48
2023-01-19T12:57:37.677Z,97720.60
2023-01-19T13:00:30.175Z,97717.27
2023-01-19T13:03:04.643Z,97715.55
2023-01-19T13:05:33.410Z,97719.11
2023-01-19T13:08:09.968Z,97716.66
2023-01-19T13:11:01.829Z,97718.70
2023-01-19T13:13:39.709Z,97719.02
2023-01-19T13:16:19.621Z,97723.09
2023-01-19T13:18:50.232Z,97724.33
2023-01-19T13:21:44.266Z,97724.82
2023-01-19T13:24:17.601Z,97723.77
2023-01-19T13:26:51.602Z,97719.86
2023-01-19T13:29:40.947Z,97724.05
2023-01-19T13:32:18.410Z,97725.64
2023-01-19T13:34:51.615Z,97724.84
2023-01-19T13:37:22.133Z,97726.64
2023-01-19T13:39:53.570Z,97728.48
2023-01-19T13:42:33.736Z,97730.20
2023-01-19T13:45:08.532Z,97729.45
2023-01-19T13:47:43.245Z,97730.09
2023-01-19T13:50:32.545Z,97736.88
2023-01-19T13:53:02.357Z,97738.48
2023-01-19T13:55:30.741Z,97736.02
2023-01-19T13:57:58.537Z,97739.23
2023-01-19T14:00:29.104Z,97742.39
2023-01-19T14:03:09.613Z,97746.42
2023-01-19T14:05:40.621Z,97747.73
2023-01-19T14:08:10.696Z,97745.80
2023-01-19T14:11:02.030Z,97750.46
2023-01-19T14:13:32.233Z,97749.55
2023-01-19T14:16:17.178Z,97747.05
2023-01-19T14:18:45.271Z,97744.69
2023-01-19T14:21:14.526Z,97745.06
2023-01-19T14:24:05.859Z,97748.73
2023-01-19T14:26:54.283Z,97757.79
2023-01-19T14:29:34.911Z,97758.45
2023-01-19T14:32:10.360Z,97765.14
2023-01-19T14:34:45.466Z,97765.23
2023-01-19T14:37:22.903Z,97768.95
2023-01-19T14:39:55.402Z,97769.84
2023-01-19T14:42:33.289Z,97772.83
2023-01-19T14:45:02.977Z,97773.04
2023-01-19T14:47:40.766Z,97772.30
2023-01-19T14:50:17.899Z,97776.33
2023-01-19T14:52:58.228Z,97777.05
2023-01-19T14:55:34.973Z,97781.12
2023-01-19T15:06:59.497Z,97787.05
2023-01-19T15:21:41.916Z,97792.09
2023-01-19T15:24:10.406Z,97797.25
2023-01-19T15:26:40.015Z,97802.37
2023-01-19T15:29:22.664Z,97805.69
2023-01-19T15:31:51.403Z,97810.03
2023-01-19T15:34:18.777Z,97808.55
2023-01-19T15:36:46.153Z,97807.83
2023-01-19T15:39:13.599Z,97802.74
2023-01-19T15:41:41.030Z,97803.54
2023-01-19T15:44:10.478Z,97812.90
2023-01-19T15:46:38.496Z,97816.09
2023-01-19T15:49:17.896Z,97820.19
2023-01-19T15:51:45.600Z,97821.33
2023-01-19T15:54:16.471Z,97819.66
2023-01-19T15:56:47.556Z,97817.98
2023-01-19T15:59:18.515Z,97822.38
2023-01-19T16:01:45.898Z,97824.11
2023-01-19T16:04:14.034Z,97825.17
2023-01-19T16:07:02.604Z,97825.42
2023-01-19T16:09:30.448Z,97827.11
2023-01-19T16:11:58.380Z,97829.04
2023-01-19T16:14:25.692Z,97832.55
2023-01-19T16:16:53.412Z,97834.23
2023-01-19T16:19:20.838Z,97837.22
2023-01-19T16:21:48.230Z,97847.01
2023-01-19T16:24:16.254Z,97843.98
2023-01-19T16:26:43.786Z,97844.37
2023-01-19T16:29:11.109Z,97843.37
2023-01-19T16:31:42.859Z,97845.20
2023-01-19T16:34:11.055Z,97849.23
2023-01-19T16:36:41.544Z,97854.00
2023-01-19T16:39:18.294Z,97856.89
2023-01-19T16:41:46.055Z,97851.30
2023-01-19T16:44:15.802Z,97858.42
2023-01-19T16:46:45.393Z,97854.85
2023-01-19T16:49:15.103Z,97856.08
2023-01-19T16:51:43.214Z,97855.77
2023-01-19T16:54:16.095Z,97855.94
2023-01-19T16:56:43.679Z,97858.93
2023-01-19T16:59:13.542Z,97853.59
2023-01-19T17:01:41.077Z,97850.06
2023-01-19T17:04:08.497Z,97853.70
2023-01-19T17:06:35.691Z,97851.71
2023-01-19T17:09:03.905Z,97853.60
2023-01-19T17:11:34.431Z,97854.50
2023-01-19T17:14:03.070Z,97858.02
2023-01-19T17:16:32.762Z,97864.33
2023-01-19T17:19:02.842Z,97865.08
2023-01-19T17:21:30.321Z,97873.20
2023-01-19T17:23:59.115Z,97868.86
2023-01-19T17:26:27.956Z,97868.73
2023-01-19T17:29:01.535Z,97866.77
2023-01-19T17:31:30.197Z,97867.30
2023-01-19T17:33:58.733Z,97867.56
2023-01-19T17:36:28.749Z,97864.63
2023-01-19T17:38:56.801Z,97869.20
2023-01-19T17:41:27.217Z,97869.84
2023-01-19T17:43:55.261Z,97874.02
2023-01-19T17:46:28.239Z,97878.77
2023-01-19T17:49:01.552Z,97876.09
2023-01-19T17:51:30.327Z,97882.39
2023-01-19T17:53:58.332Z,97887.48
2023-01-19T17:56:29.680Z,97888.51
2023-01-19T17:58:58.274Z,97891.04
2023-01-19T18:01:28.833Z,97887.05
2023-01-19T18:04:18.636Z,97888.28
2023-01-19T18:07:16.487Z,97882.79
2023-01-19T18:10:17.797Z,97879.91
2023-01-19T18:13:13.617Z,97880.61
2023-01-19T18:16:08.259Z,97880.40
2023-01-19T18:19:04.428Z,97886.39
2023-01-19T18:22:06.176Z,97888.55
2023-01-19T18:24:59.967Z,97896.70
2023-01-19T18:27:59.356Z,97904.33
2023-01-19T18:30:54.547Z,97901.10
2023-01-19T18:33:43.160Z,97906.80
2023-01-19T18:36:52.676Z,97907.80
2023-01-19T18:39:48.519Z,97906.29
2023-01-19T18:42:44.302Z,97912.71
2023-01-19T18:45:26.864Z,97914.04
2023-01-19T18:47:55.506Z,97917.88
2023-01-19T18:50:23.569Z,97922.72
2023-01-19T18:52:52.674Z,97926.29
2023-01-19T18:55:20.148Z,97925.27
2023-01-19T18:57:47.467Z,97923.75
2023-01-19T19:00:15.609Z,97926.39
2023-01-19T19:02:47.573Z,97928.56
2023-01-19T19:05:14.900Z,97928.52
2023-01-19T19:07:42.633Z,97923.66
2023-01-19T19:10:11.056Z,97923.14
2023-01-19T19:12:38.997Z,97919.89
2023-01-19T19:15:08.334Z,97916.52
2023-01-19T19:17:35.920Z,97917.16
2023-01-19T19:20:05.234Z,97916.50
2023-01-19T19:22:35.071Z,97920.69
2023-01-19T19:28:01.171Z,97929.02
2023-01-19T19:30:28.701Z,97930.14
2023-01-19T19:32:56.483Z,97930.09
2023-01-19T19:35:24.422Z,97934.01
2023-01-19T19:37:57.017Z,97933.44
2023-01-19T19:40:28.780Z,97942.59
2023-01-19T19:42:58.626Z,97950.09
2023-01-19T19:45:26.542Z,97951.58
2023-01-19T19:47:54.296Z,97952.75
2023-01-19T19:50:21.720Z,97955.48
2023-01-19T19:52:49.020Z,97961.67
2023-01-19T19:55:16.847Z,97961.55
2023-01-19T19:57:44.172Z,97965.70
2023-01-19T20:00:11.847Z,97970.42
2023-01-19T20:02:39.861Z,97971.71
2023-01-19T20:05:07.562Z,97977.95
2023-01-19T20:07:34.758Z,97977.31
2023-01-19T20:10:02.260Z,97980.40
2023-01-19T20:12:29.790Z,97982.15
2023-01-19T20:14:58.045Z,97975.59
2023-01-19T20:17:25.739Z,97974.66
2023-01-19T20:19:54.215Z,97975.92
2023-01-19T20:22:21.694Z,97973.89
2023-01-19T20:24:51.285Z,97972.59
2023-01-19T20:27:19.143Z,97974.14
2023-01-19T20:29:52.704Z,97974.11
2023-01-19T20:32:20.503Z,97980.91
2023-01-19T20:34:47.687Z,97984.19
2023-01-19T20:37:15.085Z,97990.40
2023-01-19T20:39:44.231Z,97991.20
2023-01-19T20:42:15.230Z,97993.83
2023-01-19T20:44:42.577Z,97995.27
2023-01-19T20:47:12.155Z,97997.29
2023-01-19T20:49:39.531Z,97995.09
2023-01-19T20:52:06.725Z,97996.90
2023-01-19T20:54:34.460Z,97997.60
2023-01-19T20:57:01.791Z,98001.71
2023-01-19T20:59:29.060Z,98000.89
2023-01-19T21:01:57.491Z,98006.40
2023-01-19T21:04:24.962Z,98007.98
2023-01-19T21:06:52.165Z,98007.13
2023-01-19T21:09:20.174Z,98008.18
2023-01-19T21:11:47.372Z,98010.36
2023-01-19T21:14:14.932Z,98015.48
2023-01-19T21:16:42.881Z,98013.72
2023-01-19T21:19:11.674Z,98014.96
2023-01-19T21:21:39.271Z,98013.15
2023-01-19T21:24:07.584Z,98015.23
2023-01-19T21:26:35.534Z,98012.96
2023-01-19T21:29:03.750Z,98013.55
2023-01-19T21:31:31.666Z,98016.27
2023-01-19T21:33:59.403Z,98010.30
2023-01-19T21:36:27.113Z,98007.30
2023-01-19T21:39:00.036Z,98009.27
2023-01-19T21:41:28.027Z,98011.42
2023-01-19T21:43:58.051Z,98013.84
2023-01-19T21:46:29.372Z,98016.48
2023-01-19T21:48:58.105Z,98013.86
2023-01-19T21:51:25.494Z,98012.95
2023-01-19T21:53:55.923Z,98011.55
2023-01-19T21:56:23.420Z,98010.95
2023-01-19T21:58:50.907Z,98014.11
2023-01-19T22:01:18.827Z,98015.01
2023-01-19T22:03:46.509Z,98012.60
2023-01-19T22:06:14.620Z,98015.04
2023-01-19T22:08:42.514Z,98019.10
2023-01-19T22:11:11.856Z,98020.71
2023-01-19T22:13:39.588Z,98025.04
2023-01-19T22:16:18.910Z,98024.02
2023-01-19T22:18:52.393Z,98026.77
2023-01-19T22:21:35.906Z,98028.21
2023-01-19T22:24:05.184Z,98030.18
2023-01-19T22:26:33.718Z,98034.20
2023-01-19T22:29:02.147Z,98037.80
2023-01-19T22:31:32.963Z,98035.95
2023-01-19T22:34:00.518Z,98034.80
2023-01-19T22:36:35.824Z,98038.44
2023-01-19T22:39:06.213Z,98040.95
2023-01-19T22:41:44.945Z,98044.98
2023-01-19T22:44:14.958Z,98045.06
2023-01-19T22:46:43.338Z,98043.97
2023-01-19T22:49:14.251Z,98047.92
2023-01-19T22:51:42.330Z,98052.87
2023-01-19T22:54:10.664Z,98052.19
2023-01-19T22:56:39.412Z,98049.62
2023-01-19T22:59:07.507Z,98051.52
2023-01-19T23:01:40.160Z,98054.88
2023-01-19T23:04:11.194Z,98056.25
2023-01-19T23:06:38.743Z,98056.60
2023-01-19T23:09:11.639Z,98057.20
2023-01-19T23:11:42.480Z,98056.27
2023-01-19T23:14:15.609Z,98056.69
2023-01-19T23:16:43.438Z,98064.91
2023-01-19T23:19:12.267Z,98068.77
2023-01-19T23:21:40.410Z,98068.65
2023-01-19T23:24:08.731Z,98065.98
2023-01-19T23:26:37.630Z,98065.26
2023-01-19T23:29:09.646Z,98073.54
2023-01-19T23:31:39.616Z,98067.37
2023-01-19T23:34:09.647Z,98072.16
2023-01-19T23:36:37.812Z,98074.05
2023-01-19T23:39:18.739Z,98073.22
2023-01-19T23:41:46.934Z,98078.97
2023-01-19T23:44:14.799Z,98084.50
2023-01-19T23:46:43.493Z,98085.76
2023-01-19T23:49:11.913Z,98083.50
2023-01-19T23:51:40.696Z,98085.39
2023-01-19T23:54:07.891Z,98090.38
2023-01-19T23:56:37.860Z,98092.67
2023-01-19T23:59:08.527Z,98094.38
